createdAt,value
2019-02-11T00:00:57.472Z,4.40
2019-02-11T00:03:23.788Z,4.40
2019-02-11T00:05:49.791Z,4.30
2019-02-11T00:08:15.830Z,4.30
2019-02-11T00:10:41.917Z,4.40
2019-02-11T00:13:10.632Z,4.40
2019-02-11T00:15:35.987Z,4.30
2019-02-11T00:18:02.017Z,4.30
2019-02-11T00:20:28.127Z,4.30
2019-02-11T00:22:54.265Z,4.20
2019-02-11T00:25:20.397Z,4.30
2019-02-11T00:27:46.497Z,4.20
2019-02-11T00:30:12.637Z,4.30
2019-02-11T00:32:38.691Z,4.30
2019-02-11T00:35:05.660Z,4.40
2019-02-11T00:37:31.716Z,4.40
2019-02-11T00:39:57.830Z,4.40
2019-02-11T00:42:23.866Z,4.50
2019-02-11T00:44:49.917Z,4.50
2019-02-11T00:47:15.978Z,4.50
2019-02-11T00:49:42.013Z,4.50
2019-02-11T00:52:08.095Z,4.50
2019-02-11T00:54:34.278Z,4.50
2019-02-11T00:57:00.330Z,4.60
2019-02-11T00:59:26.397Z,4.60
2019-02-11T01:01:52.411Z,4.50
2019-02-11T01:04:18.445Z,4.60
2019-02-11T01:06:44.581Z,4.60
2019-02-11T01:09:10.736Z,4.60
2019-02-11T01:11:36.764Z,4.60
2019-02-11T01:14:02.828Z,4.60
2019-02-11T01:16:28.914Z,4.70
2019-02-11T01:18:55.132Z,4.80
2019-02-11T01:21:21.229Z,4.80
2019-02-11T01:23:47.292Z,4.80
2019-02-11T01:26:13.357Z,4.80
2019-02-11T01:28:39.468Z,4.80
2019-02-11T01:31:05.511Z,4.80
2019-02-11T01:33:31.551Z,4.90
2019-02-11T01:35:57.591Z,4.90
2019-02-11T01:38:23.627Z,4.90
2019-02-11T01:40:49.740Z,4.90
2019-02-11T01:43:15.774Z,4.90
2019-02-11T01:45:41.826Z,5.00
2019-02-11T01:48:08.081Z,4.90
2019-02-11T01:50:34.087Z,4.90
2019-02-11T01:53:00.185Z,4.90
2019-02-11T01:55:26.327Z,5.00
2019-02-11T01:57:52.350Z,5.10
2019-02-11T02:00:18.531Z,5.20
2019-02-11T02:02:44.710Z,5.20
2019-02-11T02:05:10.767Z,5.20
2019-02-11T02:07:36.816Z,5.10
2019-02-11T02:10:06.568Z,5.10
2019-02-11T02:12:32.639Z,5.10
2019-02-11T02:14:58.686Z,5.10
2019-02-11T02:17:24.723Z,5.10
2019-02-11T02:19:50.776Z,5.10
2019-02-11T02:22:16.806Z,5.10
2019-02-11T02:24:42.835Z,5.20
2019-02-11T02:27:09.043Z,5.20
2019-02-11T02:29:35.067Z,5.20
2019-02-11T02:32:01.119Z,5.30
2019-02-11T02:34:27.182Z,5.20
2019-02-11T02:36:53.243Z,5.20
2019-02-11T02:39:19.278Z,5.20
2019-02-11T02:41:45.346Z,5.20
2019-02-11T02:44:11.463Z,5.20
2019-02-11T02:46:37.595Z,5.20
2019-02-11T02:49:03.829Z,5.20
2019-02-11T02:51:29.979Z,5.30
2019-02-11T02:53:56.074Z,5.30
2019-02-11T02:56:22.161Z,5.30
2019-02-11T02:58:48.192Z,5.20
2019-02-11T03:01:14.241Z,5.30
2019-02-11T03:03:40.273Z,5.30
2019-02-11T03:06:06.338Z,5.30
2019-02-11T03:08:32.395Z,5.30
2019-02-11T03:10:58.523Z,5.30
2019-02-11T03:13:24.603Z,5.40
2019-02-11T03:15:50.635Z,5.40
2019-02-11T03:18:16.883Z,5.40
2019-02-11T03:20:43.005Z,5.40
2019-02-11T03:23:09.047Z,5.50
2019-02-11T03:25:35.247Z,5.50
2019-02-11T03:28:01.260Z,5.50
2019-02-11T03:30:27.309Z,5.50
2019-02-11T03:32:53.726Z,5.50
2019-02-11T03:35:19.972Z,5.50
2019-02-11T03:37:46.017Z,5.50
2019-02-11T03:40:12.079Z,5.50
2019-02-11T03:42:38.143Z,5.50
2019-02-11T03:45:08.028Z,5.50
2019-02-11T03:47:34.154Z,5.50
2019-02-11T03:50:00.221Z,5.50
2019-02-11T03:52:26.364Z,5.50
2019-02-11T03:54:52.937Z,5.60
2019-02-11T03:57:19.076Z,5.60
2019-02-11T03:59:45.212Z,5.50
2019-02-11T04:02:11.266Z,5.50
2019-02-11T04:04:37.295Z,5.50
2019-02-11T04:07:03.367Z,5.50
2019-02-11T04:09:29.439Z,5.50
2019-02-11T04:11:55.535Z,5.50
2019-02-11T04:14:24.998Z,5.60
2019-02-11T04:16:49.613Z,5.60
2019-02-11T04:19:15.955Z,5.60
2019-02-11T04:21:42.063Z,5.60
2019-02-11T04:24:08.112Z,5.60
2019-02-11T04:26:34.179Z,5.60
2019-02-11T04:29:00.207Z,5.50
2019-02-11T04:31:26.267Z,5.50
2019-02-11T04:33:52.323Z,5.50
2019-02-11T04:36:18.352Z,5.60
2019-02-11T04:38:44.427Z,5.50
2019-02-11T04:41:10.559Z,5.50
2019-02-11T04:43:36.590Z,5.50
2019-02-11T04:46:02.619Z,5.50
2019-02-11T04:48:28.663Z,5.40
2019-02-11T04:50:54.731Z,5.50
2019-02-11T04:53:20.763Z,5.50
2019-02-11T04:55:47.662Z,5.40
2019-02-11T04:58:13.701Z,5.40
2019-02-11T05:00:40.530Z,5.40
2019-02-11T05:03:06.569Z,5.40
2019-02-11T05:05:32.899Z,5.30
2019-02-11T05:07:58.984Z,5.40
2019-02-11T05:10:25.020Z,5.30
2019-02-11T05:12:51.140Z,5.30
2019-02-11T05:15:17.311Z,5.30
2019-02-11T05:17:43.439Z,5.30
2019-02-11T05:20:10.614Z,5.30
2019-02-11T05:22:36.770Z,5.40
2019-02-11T05:25:04.314Z,5.40
2019-02-11T05:27:30.401Z,5.50
2019-02-11T05:29:56.830Z,5.50
2019-02-11T05:32:22.945Z,5.40
2019-02-11T05:34:49.024Z,5.40
2019-02-11T05:37:15.112Z,5.50
2019-02-11T05:39:41.138Z,5.50
2019-02-11T05:42:07.179Z,5.50
2019-02-11T05:44:33.254Z,5.40
2019-02-11T05:46:59.421Z,5.40
2019-02-11T05:49:27.392Z,5.40
2019-02-11T05:51:53.669Z,5.30
2019-02-11T05:54:22.739Z,5.40
2019-02-11T05:56:48.764Z,5.40
2019-02-11T05:59:15.092Z,5.40
2019-02-11T06:01:41.144Z,5.40
2019-02-11T06:04:07.184Z,5.40
2019-02-11T06:06:33.271Z,5.40
2019-02-11T06:08:59.305Z,5.40
2019-02-11T06:11:25.356Z,5.50
2019-02-11T06:13:51.454Z,5.50
2019-02-11T06:16:17.497Z,5.50
2019-02-11T06:18:43.719Z,5.50
2019-02-11T06:21:09.855Z,5.50
2019-02-11T06:23:35.992Z,5.50
2019-02-11T06:26:02.128Z,5.50
2019-02-11T06:28:28.278Z,5.60
2019-02-11T06:30:54.739Z,5.50
2019-02-11T06:33:21.005Z,5.50
2019-02-11T06:35:47.447Z,5.50
2019-02-11T06:38:13.576Z,5.40
2019-02-11T06:40:39.701Z,5.50
2019-02-11T06:43:05.983Z,5.50
2019-02-11T06:45:32.013Z,5.40
2019-02-11T06:47:58.139Z,5.50
2019-02-11T06:50:24.184Z,5.50
2019-02-11T06:52:50.363Z,5.50
2019-02-11T06:55:16.407Z,5.60
2019-02-11T06:57:42.658Z,5.60
2019-02-11T07:00:13.328Z,5.50
2019-02-11T07:02:39.469Z,5.50
2019-02-11T07:05:06.626Z,5.50
2019-02-11T07:07:32.767Z,5.50
2019-02-11T07:09:59.022Z,5.60
2019-02-11T07:12:26.989Z,5.60
2019-02-11T07:14:55.094Z,5.50
2019-02-11T07:17:21.151Z,5.50
2019-02-11T07:19:47.257Z,5.50
2019-02-11T07:22:13.545Z,5.40
2019-02-11T07:24:39.789Z,5.40
2019-02-11T07:27:05.859Z,5.50
2019-02-11T07:29:31.934Z,5.50
2019-02-11T07:31:57.981Z,5.60
2019-02-11T07:34:24.315Z,5.60
2019-02-11T07:36:50.496Z,5.50
2019-02-11T07:39:17.439Z,5.40
2019-02-11T07:41:48.056Z,5.50
2019-02-11T07:44:15.997Z,5.50
2019-02-11T07:46:42.433Z,5.60
2019-02-11T07:49:09.748Z,5.60
2019-02-11T07:51:42.161Z,5.60
2019-02-11T07:54:04.123Z,5.70
2019-02-11T07:56:30.321Z,5.70
2019-02-11T07:58:56.424Z,5.70
2019-02-11T08:01:22.523Z,5.70
2019-02-11T08:03:48.575Z,5.70
2019-02-11T08:06:14.629Z,5.80
2019-02-11T08:08:40.672Z,5.80
2019-02-11T08:11:06.751Z,5.80
2019-02-11T08:13:32.819Z,5.80
2019-02-11T08:15:58.977Z,6.00
2019-02-11T08:18:25.061Z,6.00
2019-02-11T08:20:51.137Z,6.10
2019-02-11T08:23:17.274Z,6.00
2019-02-11T08:25:43.353Z,6.00
2019-02-11T08:28:09.419Z,6.10
2019-02-11T08:30:35.599Z,6.20
2019-02-11T08:33:01.670Z,6.20
2019-02-11T08:35:28.993Z,6.30
2019-02-11T08:37:55.410Z,6.30
2019-02-11T08:40:21.514Z,6.30
2019-02-11T08:42:47.586Z,6.30
2019-02-11T08:45:13.781Z,6.30
2019-02-11T08:47:39.891Z,6.30
2019-02-11T08:50:07.734Z,6.40
2019-02-11T08:52:33.902Z,6.40
2019-02-11T08:55:00.035Z,6.50
2019-02-11T08:57:26.089Z,6.50
2019-02-11T08:59:52.131Z,6.50
2019-02-11T09:02:18.211Z,6.50
2019-02-11T09:04:44.283Z,6.60
2019-02-11T09:07:10.432Z,6.60
2019-02-11T09:09:36.524Z,6.60
2019-02-11T09:12:02.603Z,6.60
2019-02-11T09:14:30.873Z,6.60
2019-02-11T09:16:57.154Z,6.60
2019-02-11T09:19:23.287Z,6.70
2019-02-11T09:21:49.517Z,6.90
2019-02-11T09:24:15.596Z,7.20
2019-02-11T09:26:41.623Z,7.20
2019-02-11T09:29:07.672Z,7.20
2019-02-11T09:31:33.716Z,7.30
2019-02-11T09:33:59.795Z,7.30
2019-02-11T09:36:25.859Z,7.40
2019-02-11T09:38:51.916Z,7.40
2019-02-11T09:41:18.160Z,7.50
2019-02-11T09:43:44.703Z,7.40
2019-02-11T09:46:10.839Z,7.40
2019-02-11T09:48:37.851Z,7.30
2019-02-11T09:51:04.336Z,7.40
2019-02-11T09:53:30.379Z,7.50
2019-02-11T09:55:56.566Z,7.60
2019-02-11T09:58:22.611Z,7.40
2019-02-11T10:00:48.769Z,7.30
2019-02-11T10:03:14.823Z,7.20
2019-02-11T10:05:40.880Z,7.20
2019-02-11T10:08:07.005Z,7.20
2019-02-11T10:10:33.202Z,7.20
2019-02-11T10:12:59.332Z,7.20
2019-02-11T10:15:25.400Z,7.30
2019-02-11T10:17:51.587Z,7.30
2019-02-11T10:20:17.819Z,7.40
2019-02-11T10:22:43.951Z,7.50
2019-02-11T10:25:24.614Z,7.70
2019-02-11T10:27:52.081Z,7.50
2019-02-11T10:30:18.246Z,7.40
2019-02-11T10:32:44.447Z,7.50
2019-02-11T10:35:11.641Z,7.70
2019-02-11T10:37:37.882Z,7.80
2019-02-11T10:40:06.609Z,7.90
2019-02-11T10:42:33.061Z,8.20
2019-02-11T10:44:59.130Z,8.30
2019-02-11T10:47:25.167Z,8.40
2019-02-11T10:49:51.356Z,8.40
2019-02-11T10:52:17.403Z,8.20
2019-02-11T10:54:43.499Z,8.00
2019-02-11T10:57:09.595Z,8.10
2019-02-11T10:59:35.641Z,8.20
2019-02-11T11:02:01.679Z,8.00
2019-02-11T11:04:28.072Z,8.20
2019-02-11T11:06:54.103Z,8.20
2019-02-11T11:09:20.143Z,7.70
2019-02-11T11:11:46.595Z,7.50
2019-02-11T11:14:12.644Z,7.50
2019-02-11T11:16:38.753Z,7.50
2019-02-11T11:19:04.937Z,7.30
2019-02-11T11:21:33.255Z,7.20
2019-02-11T11:23:59.366Z,7.20
2019-02-11T11:26:25.758Z,7.30
2019-02-11T11:28:51.921Z,7.50
2019-02-11T11:31:17.975Z,7.80
2019-02-11T11:33:44.028Z,7.80
2019-02-11T11:36:10.156Z,7.90
2019-02-11T11:38:36.425Z,7.80
2019-02-11T11:41:03.436Z,7.70
2019-02-11T11:43:29.463Z,8.10
2019-02-11T11:45:55.670Z,8.10
2019-02-11T11:48:21.710Z,8.20
2019-02-11T11:50:47.799Z,8.20
2019-02-11T11:53:13.904Z,8.00
2019-02-11T11:55:40.132Z,8.00
2019-02-11T11:58:06.217Z,8.00
2019-02-11T12:00:33.365Z,7.90
2019-02-11T12:03:03.515Z,7.80
2019-02-11T12:05:27.590Z,8.00
2019-02-11T12:07:54.108Z,8.10
2019-02-11T12:10:20.358Z,8.10
2019-02-11T12:12:46.714Z,8.00
2019-02-11T12:15:21.913Z,8.00
2019-02-11T12:17:48.475Z,7.80
2019-02-11T12:20:15.090Z,7.70
2019-02-11T12:22:41.259Z,7.60
2019-02-11T12:25:09.991Z,7.90
2019-02-11T12:27:36.145Z,8.00
2019-02-11T12:30:04.720Z,8.00
2019-02-11T12:32:31.167Z,8.00
2019-02-11T12:34:57.379Z,8.00
2019-02-11T12:37:23.430Z,8.00
2019-02-11T12:39:49.439Z,8.20
2019-02-11T12:42:15.669Z,8.10
2019-02-11T12:44:41.745Z,7.80
2019-02-11T12:47:14.052Z,7.50
2019-02-11T12:49:35.715Z,7.40
2019-02-11T12:52:01.757Z,7.30
2019-02-11T12:54:27.996Z,7.10
2019-02-11T12:56:54.376Z,7.00
2019-02-11T12:59:20.498Z,6.90
2019-02-11T13:01:46.615Z,6.80
2019-02-11T13:04:12.641Z,6.80
2019-02-11T13:06:38.696Z,6.70
2019-02-11T13:09:05.091Z,6.60
2019-02-11T13:11:32.274Z,6.60
2019-02-11T13:13:58.422Z,6.80
2019-02-11T13:16:24.646Z,6.70
2019-02-11T13:18:50.779Z,6.80
2019-02-11T13:21:16.929Z,6.90
2019-02-11T13:23:42.964Z,7.00
2019-02-11T13:26:09.144Z,7.10
2019-02-11T13:28:35.939Z,6.90
2019-02-11T13:31:02.153Z,7.00
2019-02-11T13:33:28.667Z,7.10
2019-02-11T13:35:54.856Z,7.10
2019-02-11T13:38:20.972Z,7.10
2019-02-11T13:40:47.022Z,7.20
2019-02-11T13:43:13.061Z,7.30
2019-02-11T13:45:39.193Z,7.40
2019-02-11T13:48:05.329Z,7.40
2019-02-11T13:50:31.467Z,7.20
2019-02-11T13:52:57.633Z,7.00
2019-02-11T13:55:23.925Z,7.00
2019-02-11T13:57:50.002Z,6.80
2019-02-11T14:00:21.083Z,6.80
2019-02-11T14:03:03.463Z,6.90
2019-02-11T14:05:30.260Z,6.90
2019-02-11T14:07:58.512Z,6.80
2019-02-11T14:10:24.530Z,6.80
2019-02-11T14:12:50.553Z,6.80
2019-02-11T14:15:20.497Z,6.80
2019-02-11T14:17:44.909Z,6.80
2019-02-11T14:20:24.979Z,6.80
2019-02-11T14:22:50.999Z,6.90
2019-02-11T14:25:17.138Z,6.90
2019-02-11T14:27:43.180Z,6.80
2019-02-11T14:30:14.375Z,6.80
2019-02-11T14:32:40.594Z,6.70
2019-02-11T14:35:07.007Z,6.70
2019-02-11T14:37:33.030Z,6.70
2019-02-11T14:39:59.063Z,6.70
2019-02-11T14:42:25.119Z,6.70
2019-02-11T14:44:51.148Z,6.60
2019-02-11T14:47:17.174Z,6.60
2019-02-11T14:49:43.211Z,6.60
2019-02-11T14:52:09.231Z,6.60
2019-02-11T14:54:35.264Z,6.60
2019-02-11T14:57:01.346Z,6.50
2019-02-11T14:59:27.377Z,6.50
2019-02-11T15:01:53.407Z,6.40
2019-02-11T15:04:19.715Z,6.40
2019-02-11T15:06:45.732Z,6.40
2019-02-11T15:09:11.764Z,6.30
2019-02-11T15:11:37.812Z,6.30
2019-02-11T15:14:03.835Z,6.20
2019-02-11T15:16:29.847Z,6.10
2019-02-11T15:18:57.659Z,6.10
2019-02-11T15:21:23.803Z,6.10
2019-02-11T15:23:49.844Z,6.00
2019-02-11T15:26:16.064Z,6.00
2019-02-11T15:28:42.087Z,6.10
2019-02-11T15:31:08.104Z,6.60
2019-02-11T15:33:34.159Z,7.20
2019-02-11T15:36:00.175Z,6.80
2019-02-11T15:38:26.201Z,6.50
2019-02-11T15:40:52.223Z,6.20
2019-02-11T15:43:18.245Z,6.00
2019-02-11T15:45:44.313Z,5.80
2019-02-11T15:48:10.335Z,5.70
2019-02-11T15:50:36.371Z,5.60
2019-02-11T15:53:02.408Z,5.50
2019-02-11T15:55:28.427Z,5.40
2019-02-11T15:57:54.451Z,5.30
2019-02-11T16:00:21.495Z,5.10
2019-02-11T16:02:47.624Z,5.10
2019-02-11T16:05:16.560Z,5.00
2019-02-11T16:07:41.678Z,5.00
2019-02-11T16:10:13.500Z,4.90
2019-02-11T16:12:39.531Z,4.90
2019-02-11T16:15:08.168Z,4.80
2019-02-11T16:17:34.527Z,4.80
2019-02-11T16:20:00.549Z,4.70
2019-02-11T16:22:26.611Z,4.80
2019-02-11T16:24:52.655Z,4.70
2019-02-11T16:27:18.676Z,4.60
2019-02-11T16:29:44.700Z,4.60
2019-02-11T16:32:10.763Z,4.60
2019-02-11T16:34:36.792Z,4.50
2019-02-11T16:37:03.120Z,4.50
2019-02-11T16:39:29.307Z,4.40
2019-02-11T16:41:55.336Z,4.40
2019-02-11T16:44:21.359Z,4.50
2019-02-11T16:46:47.423Z,4.50
2019-02-11T16:49:13.451Z,4.40
2019-02-11T16:51:39.469Z,4.40
2019-02-11T16:54:05.695Z,4.40
2019-02-11T16:56:31.776Z,4.40
2019-02-11T16:58:57.812Z,4.30
2019-02-11T17:01:23.850Z,4.30
2019-02-11T17:03:49.863Z,4.30
2019-02-11T17:06:15.883Z,4.20
2019-02-11T17:08:41.948Z,4.30
2019-02-11T17:11:07.997Z,4.30
2019-02-11T17:13:34.019Z,4.30
2019-02-11T17:16:00.076Z,4.30
2019-02-11T17:18:26.106Z,4.40
2019-02-11T17:20:52.132Z,4.40
2019-02-11T17:23:18.185Z,4.50
2019-02-11T17:25:44.231Z,4.60
2019-02-11T17:28:10.261Z,4.60
2019-02-11T17:30:38.704Z,4.60
2019-02-11T17:33:04.753Z,4.60
2019-02-11T17:35:30.760Z,4.40
2019-02-11T17:37:56.779Z,4.30
2019-02-11T17:40:22.835Z,4.40
2019-02-11T17:42:48.861Z,4.30
2019-02-11T17:45:20.306Z,4.30
2019-02-11T17:47:48.347Z,4.20
2019-02-11T17:50:14.468Z,4.20
2019-02-11T17:52:40.487Z,4.30
2019-02-11T17:55:13.723Z,4.30
2019-02-11T17:57:39.856Z,4.40
2019-02-11T18:00:20.932Z,4.40
2019-02-11T18:02:46.960Z,4.30
2019-02-11T18:05:12.988Z,4.40
2019-02-11T18:07:39.026Z,4.40
2019-02-11T18:10:05.764Z,4.50
2019-02-11T18:12:31.775Z,4.60
2019-02-11T18:14:57.826Z,4.60
2019-02-11T18:17:23.880Z,4.50
2019-02-11T18:19:49.906Z,4.40
2019-02-11T18:22:15.947Z,4.30
2019-02-11T18:24:41.985Z,4.20
2019-02-11T18:27:08.042Z,4.20
2019-02-11T18:29:34.108Z,4.20
2019-02-11T18:32:00.161Z,4.20
2019-02-11T18:34:26.195Z,4.20
2019-02-11T18:36:52.260Z,4.20
2019-02-11T18:39:18.271Z,4.30
2019-02-11T18:41:44.309Z,4.20
2019-02-11T18:44:10.422Z,4.10
2019-02-11T18:46:36.514Z,4.10
2019-02-11T18:49:03.882Z,4.10
2019-02-11T18:51:29.939Z,4.10
2019-02-11T18:53:56.388Z,4.00
2019-02-11T18:56:22.533Z,4.00
2019-02-11T18:58:48.751Z,4.00
2019-02-11T19:01:14.774Z,3.80
2019-02-11T19:03:40.794Z,3.90
2019-02-11T19:06:06.981Z,3.90
2019-02-11T19:08:33.003Z,4.00
2019-02-11T19:10:59.041Z,4.00
2019-02-11T19:13:25.118Z,4.10
2019-02-11T19:15:51.169Z,4.10
2019-02-11T19:18:17.223Z,4.10
2019-02-11T19:20:43.269Z,4.00
2019-02-11T19:23:09.331Z,4.00
2019-02-11T19:25:35.409Z,3.90
2019-02-11T19:28:01.459Z,4.00
2019-02-11T19:30:27.741Z,3.90
2019-02-11T19:32:53.736Z,3.90
2019-02-11T19:35:19.927Z,3.80
2019-02-11T19:37:46.101Z,3.80
2019-02-11T19:40:16.462Z,3.80
2019-02-11T19:42:42.520Z,3.70
2019-02-11T19:45:14.033Z,3.70
2019-02-11T19:47:40.422Z,3.60
2019-02-11T19:50:13.626Z,3.60
2019-02-11T19:52:42.008Z,3.60
2019-02-11T19:55:10.828Z,3.60
2019-02-11T19:57:37.236Z,3.50
2019-02-11T20:00:12.654Z,3.50
2019-02-11T20:02:41.140Z,3.50
2019-02-11T20:05:08.952Z,3.50
2019-02-11T20:07:35.075Z,3.50
2019-02-11T20:10:01.116Z,3.50
2019-02-11T20:12:27.181Z,3.40
2019-02-11T20:14:53.272Z,3.40
2019-02-11T20:17:20.768Z,3.60
2019-02-11T20:19:47.118Z,3.60
2019-02-11T20:22:13.441Z,3.60
2019-02-11T20:24:41.516Z,3.60
2019-02-11T20:27:07.655Z,3.40
2019-02-11T20:29:34.080Z,3.30
2019-02-11T20:32:00.170Z,3.30
2019-02-11T20:34:26.327Z,3.30
2019-02-11T20:36:52.855Z,3.30
2019-02-11T20:39:19.025Z,3.30
2019-02-11T20:41:45.212Z,3.30
2019-02-11T20:44:11.276Z,3.30
2019-02-11T20:46:37.362Z,3.40
2019-02-11T20:49:03.493Z,3.50
2019-02-11T20:51:29.558Z,3.50
2019-02-11T20:53:56.342Z,3.60
2019-02-11T20:56:22.923Z,3.60
2019-02-11T20:58:48.951Z,3.60
2019-02-11T21:01:15.669Z,3.60
2019-02-11T21:03:41.700Z,3.50
2019-02-11T21:06:10.202Z,3.50
2019-02-11T21:08:36.377Z,3.40
2019-02-11T21:11:04.985Z,3.40
2019-02-11T21:13:31.032Z,3.40
2019-02-11T21:15:57.151Z,3.40
2019-02-11T21:18:23.187Z,3.30
2019-02-11T21:20:49.254Z,3.20
2019-02-11T21:23:15.389Z,3.20
2019-02-11T21:25:41.501Z,3.10
2019-02-11T21:28:07.531Z,3.10
2019-02-11T21:30:34.288Z,3.10
2019-02-11T21:33:00.875Z,3.00
2019-02-11T21:35:27.032Z,3.10
2019-02-11T21:37:56.232Z,3.10
2019-02-11T21:40:25.000Z,3.00
2019-02-11T21:42:51.151Z,3.00
2019-02-11T21:45:17.242Z,3.00
2019-02-11T21:47:43.351Z,2.90
2019-02-11T21:50:17.063Z,3.00
2019-02-11T21:52:43.408Z,2.90
2019-02-11T21:55:11.563Z,2.90
2019-02-11T21:57:37.944Z,2.90
2019-02-11T22:00:15.318Z,2.90
2019-02-11T22:02:41.459Z,3.00
2019-02-11T22:05:07.667Z,3.10
2019-02-11T22:07:33.713Z,3.20
2019-02-11T22:09:59.748Z,3.30
2019-02-11T22:12:26.303Z,3.40
2019-02-11T22:14:52.787Z,3.40
2019-02-11T22:17:19.051Z,3.50
2019-02-11T22:19:45.087Z,3.50
2019-02-11T22:22:11.187Z,3.60
2019-02-11T22:24:37.231Z,3.60
2019-02-11T22:27:03.288Z,3.60
2019-02-11T22:29:29.429Z,3.70
2019-02-11T22:31:55.546Z,3.70
2019-02-11T22:34:21.613Z,3.60
2019-02-11T22:36:47.630Z,3.60
2019-02-11T22:39:13.767Z,3.60
2019-02-11T22:41:39.887Z,3.50
2019-02-11T22:44:05.928Z,3.50
2019-02-11T22:46:32.016Z,3.50
2019-02-11T22:48:58.033Z,3.60
2019-02-11T22:51:24.305Z,3.60
2019-02-11T22:53:51.024Z,3.60
2019-02-11T22:56:17.167Z,3.70
2019-02-11T22:58:43.435Z,3.70
2019-02-11T23:01:09.487Z,3.80
2019-02-11T23:03:36.089Z,3.80
2019-02-11T23:06:02.412Z,3.80
2019-02-11T23:08:28.467Z,3.90
2019-02-11T23:10:54.629Z,3.90
2019-02-11T23:13:20.683Z,3.90
2019-02-11T23:15:46.792Z,3.90
2019-02-11T23:18:12.876Z,3.90
2019-02-11T23:20:38.913Z,3.80
2019-02-11T23:23:05.030Z,3.70
2019-02-11T23:25:31.191Z,3.70
2019-02-11T23:27:57.357Z,3.60
2019-02-11T23:30:23.449Z,3.60
2019-02-11T23:32:49.527Z,3.50
2019-02-11T23:35:15.676Z,3.40
2019-02-11T23:37:41.693Z,3.30
2019-02-11T23:40:08.783Z,3.30
2019-02-11T23:42:34.921Z,3.20
2019-02-11T23:45:01.194Z,3.30
2019-02-11T23:47:27.329Z,3.30
2019-02-11T23:49:53.339Z,3.20
2019-02-11T23:52:19.400Z,3.30
2019-02-11T23:54:45.432Z,3.20
2019-02-11T23:57:11.493Z,3.20
2019-02-11T23:59:37.530Z,3.20
